createdAt,value
2022-09-25T00:00:35.427Z,29.33
2022-09-25T00:03:05.913Z,29.32
2022-09-25T00:05:38.121Z,29.30
2022-09-25T00:08:08.925Z,29.28
2022-09-25T00:10:58.883Z,29.28
2022-09-25T00:13:28.624Z,29.27
2022-09-25T00:15:59.447Z,29.27
2022-09-25T00:18:52.050Z,29.23
2022-09-25T00:21:22.539Z,29.13
2022-09-25T00:23:52.813Z,29.10
2022-09-25T00:26:24.862Z,29.11
2022-09-25T00:28:56.003Z,29.15
2022-09-25T00:31:30.023Z,29.16
2022-09-25T00:34:01.358Z,29.14
2022-09-25T00:36:31.820Z,29.12
2022-09-25T00:39:01.661Z,29.13
2022-09-25T00:41:34.328Z,29.19
2022-09-25T00:44:05.625Z,29.20
2022-09-25T00:46:36.009Z,29.20
2022-09-25T00:49:17.186Z,29.19
2022-09-25T00:51:53.898Z,29.21
2022-09-25T00:54:48.185Z,29.24
2022-09-25T00:57:21.618Z,29.23
2022-09-25T00:59:56.530Z,29.17
2022-09-25T01:02:30.162Z,29.22
2022-09-25T01:05:05.844Z,29.19
2022-09-25T01:07:36.512Z,29.19
2022-09-25T01:10:10.797Z,29.17
2022-09-25T01:12:46.224Z,29.14
2022-09-25T01:15:17.476Z,29.21
2022-09-25T01:17:48.274Z,29.17
2022-09-25T01:20:24.032Z,29.20
2022-09-25T01:22:57.102Z,29.22
2022-09-25T01:25:59.534Z,29.24
2022-09-25T01:28:43.628Z,29.30
2022-09-25T01:31:21.283Z,29.22
2022-09-25T01:33:53.276Z,29.27
2022-09-25T01:36:28.344Z,29.24
2022-09-25T01:39:07.232Z,29.24
2022-09-25T01:41:49.429Z,29.26
2022-09-25T01:44:39.378Z,29.28
2022-09-25T01:47:12.584Z,29.27
2022-09-25T01:49:46.204Z,29.26
2022-09-25T01:52:22.682Z,29.28
2022-09-25T01:54:56.171Z,29.28
2022-09-25T01:57:32.615Z,29.26
2022-09-25T02:00:07.518Z,29.19
2022-09-25T02:02:47.533Z,29.12
2022-09-25T02:05:29.690Z,29.14
2022-09-25T02:08:03.101Z,29.10
2022-09-25T02:10:47.223Z,29.04
2022-09-25T02:13:19.917Z,29.11
2022-09-25T02:15:55.791Z,29.13
2022-09-25T02:18:46.108Z,29.14
2022-09-25T02:21:16.385Z,29.18
2022-09-25T02:23:56.086Z,29.16
2022-09-25T02:26:30.451Z,29.17
2022-09-25T02:29:00.883Z,29.03
2022-09-25T02:31:51.545Z,29.10
2022-09-25T02:34:21.813Z,29.10
2022-09-25T02:36:52.467Z,29.07
2022-09-25T02:39:24.375Z,28.98
2022-09-25T02:42:02.090Z,28.97
2022-09-25T02:44:51.118Z,29.07
2022-09-25T02:47:20.877Z,29.04
2022-09-25T02:49:50.656Z,29.04
2022-09-25T02:52:39.666Z,29.11
2022-09-25T02:55:18.435Z,29.11
2022-09-25T02:57:55.098Z,29.09
2022-09-25T03:00:26.460Z,29.11
2022-09-25T03:03:01.827Z,29.11
2022-09-25T03:05:32.726Z,29.12
2022-09-25T03:08:21.216Z,29.15
2022-09-25T03:10:51.982Z,29.17
2022-09-25T03:13:24.179Z,29.15
2022-09-25T03:15:58.163Z,29.10
2022-09-25T03:18:28.748Z,29.11
2022-09-25T03:20:58.956Z,29.12
2022-09-25T03:23:28.990Z,29.17
2022-09-25T03:25:58.809Z,29.21
2022-09-25T03:28:28.836Z,29.27
2022-09-25T03:31:19.262Z,29.22
2022-09-25T03:33:49.858Z,29.23
2022-09-25T03:36:21.735Z,29.27
2022-09-25T03:38:53.445Z,29.24
2022-09-25T03:41:24.726Z,29.31
2022-09-25T03:43:56.017Z,29.34
2022-09-25T03:46:28.199Z,29.33
2022-09-25T03:48:58.935Z,29.37
2022-09-25T03:51:29.930Z,29.44
2022-09-25T03:54:00.737Z,29.45
2022-09-25T03:56:32.398Z,29.51
2022-09-25T03:59:02.374Z,29.52
2022-09-25T04:01:32.006Z,29.44
2022-09-25T04:04:03.404Z,29.45
2022-09-25T04:06:33.855Z,29.49
2022-09-25T04:09:04.273Z,29.40
2022-09-25T04:11:34.122Z,29.40
2022-09-25T04:14:04.331Z,29.43
2022-09-25T04:16:34.163Z,29.49
2022-09-25T04:19:03.813Z,29.51
2022-09-25T04:21:33.421Z,29.50
2022-09-25T04:24:21.579Z,29.53
2022-09-25T04:26:56.437Z,29.51
2022-09-25T04:29:27.483Z,29.51
2022-09-25T04:32:15.732Z,29.51
2022-09-25T04:34:45.921Z,29.49
2022-09-25T04:37:16.868Z,29.45
2022-09-25T04:39:47.125Z,29.44
2022-09-25T04:42:17.924Z,29.45
2022-09-25T04:44:47.770Z,29.37
2022-09-25T04:47:17.392Z,29.37
2022-09-25T04:49:47.769Z,29.39
2022-09-25T04:52:18.226Z,29.41
2022-09-25T04:54:47.949Z,29.41
2022-09-25T04:57:45.586Z,29.35
2022-09-25T05:00:13.155Z,29.36
2022-09-25T05:02:43.094Z,29.45
2022-09-25T05:05:13.163Z,29.43
2022-09-25T08:05:18.048Z,28.75
2022-09-25T08:07:47.840Z,28.75
2022-09-25T08:10:18.332Z,28.75
2022-09-25T08:12:48.840Z,28.90
2022-09-25T08:15:18.746Z,28.98
2022-09-25T08:17:48.958Z,29.00
2022-09-25T08:20:18.833Z,29.07
2022-09-25T08:22:48.816Z,29.14
2022-09-25T08:25:19.200Z,29.24
2022-09-25T08:27:49.367Z,29.29
2022-09-25T08:30:20.607Z,29.28
2022-09-25T08:32:50.568Z,29.25
2022-09-25T08:35:20.651Z,29.32
2022-09-25T08:37:51.232Z,29.33
2022-09-25T08:40:22.814Z,29.37
2022-09-25T08:42:55.015Z,29.42
2022-09-25T08:45:52.885Z,29.46
2022-09-25T08:48:49.476Z,29.46
2022-09-25T08:51:19.232Z,29.43
2022-09-25T08:53:49.367Z,29.43
2022-09-25T08:56:22.150Z,29.41
2022-09-25T08:58:57.642Z,29.39
2022-09-25T09:01:29.940Z,29.37
2022-09-25T09:04:07.770Z,29.38
2022-09-25T09:06:41.469Z,29.41
2022-09-25T09:09:31.673Z,29.41
2022-09-25T09:12:06.267Z,29.42
2022-09-25T09:14:40.131Z,29.44
2022-09-25T09:17:17.658Z,29.47
2022-09-25T09:19:59.754Z,29.42
2022-09-25T09:22:33.524Z,29.44
2022-09-25T09:25:26.572Z,29.44
2022-09-25T09:28:14.766Z,29.43
2022-09-25T09:30:50.475Z,29.45
2022-09-25T09:33:26.492Z,29.42
2022-09-25T09:36:09.124Z,29.43
2022-09-25T09:38:46.957Z,29.43
2022-09-25T09:41:24.669Z,29.43
2022-09-25T09:44:22.083Z,29.46
2022-09-25T09:47:05.743Z,29.50
2022-09-25T09:49:35.738Z,29.51
2022-09-25T09:52:12.062Z,29.51
2022-09-25T09:54:42.407Z,29.53
2022-09-25T09:57:15.741Z,29.54
2022-09-25T10:00:11.890Z,29.55
2022-09-25T10:02:42.249Z,29.52
2022-09-25T10:05:25.997Z,29.53
2022-09-25T10:07:56.226Z,29.55
2022-09-25T10:10:32.185Z,29.54
2022-09-25T10:13:22.413Z,29.52
2022-09-25T10:15:57.470Z,29.50
2022-09-25T10:18:31.022Z,29.54
2022-09-25T10:21:08.388Z,29.55
2022-09-25T10:23:41.078Z,29.53
2022-09-25T10:26:29.779Z,29.55
2022-09-25T10:29:00.825Z,29.52
2022-09-25T10:31:32.314Z,29.51
2022-09-25T10:34:05.600Z,29.50
2022-09-25T10:36:42.662Z,29.52
2022-09-25T10:39:44.213Z,29.56
2022-09-25T10:42:35.198Z,29.59
2022-09-25T10:45:18.266Z,29.60
2022-09-25T10:48:07.704Z,29.57
2022-09-25T10:50:40.396Z,29.54
2022-09-25T10:53:31.578Z,29.53
2022-09-25T10:56:09.517Z,29.54
2022-09-25T10:58:42.796Z,29.54
2022-09-25T11:01:15.545Z,29.52
2022-09-25T11:03:48.214Z,29.49
2022-09-25T11:06:23.310Z,29.47
2022-09-25T11:09:06.607Z,29.42
2022-09-25T11:11:37.087Z,29.44
2022-09-25T11:14:08.212Z,29.42
2022-09-25T11:16:48.150Z,29.40
2022-09-25T11:19:27.502Z,29.44
2022-09-25T11:22:00.410Z,29.42
2022-09-25T11:25:02.692Z,29.40
2022-09-25T11:27:56.235Z,29.36
2022-09-25T11:30:26.883Z,29.36
2022-09-25T11:33:09.544Z,29.38
2022-09-25T11:35:50.119Z,29.30
2022-09-25T11:38:47.828Z,29.31
2022-09-25T11:41:36.189Z,29.31
2022-09-25T11:44:38.413Z,29.28
2022-09-25T11:47:13.257Z,29.30
2022-09-25T11:49:43.586Z,29.30
2022-09-25T11:52:26.214Z,29.30
2022-09-25T11:55:14.816Z,29.31
2022-09-25T11:57:56.219Z,29.26
2022-09-25T12:00:48.859Z,29.26
2022-09-25T12:03:38.019Z,29.31
2022-09-25T12:06:16.594Z,29.33
2022-09-25T12:08:54.377Z,29.30
2022-09-25T12:11:48.116Z,29.35
2022-09-25T12:14:20.929Z,29.37
2022-09-25T12:17:03.141Z,29.39
2022-09-25T12:19:48.592Z,29.31
2022-09-25T12:22:23.230Z,29.32
2022-09-25T12:25:09.292Z,29.35
2022-09-25T12:27:44.271Z,29.36
2022-09-25T12:30:26.020Z,29.29
2022-09-25T12:33:16.557Z,29.40
2022-09-25T12:35:46.875Z,29.33
2022-09-25T12:38:22.544Z,29.31
2022-09-25T12:41:15.461Z,29.45
2022-09-25T12:43:49.008Z,29.41
2022-09-25T12:46:18.735Z,29.43
2022-09-25T12:48:54.031Z,29.43
2022-09-25T12:51:27.921Z,29.45
2022-09-25T12:54:02.734Z,29.44
2022-09-25T12:56:36.296Z,29.46
2022-09-25T12:59:16.752Z,29.53
2022-09-25T13:01:49.054Z,29.51
2022-09-25T13:04:27.834Z,29.55
2022-09-25T13:07:02.371Z,29.55
2022-09-25T13:09:44.195Z,29.56
2022-09-25T13:12:15.083Z,29.55
2022-09-25T13:14:48.659Z,29.55
2022-09-25T13:17:18.567Z,29.62
2022-09-25T13:19:48.845Z,29.61
2022-09-25T13:22:24.456Z,29.61
2022-09-25T13:24:59.039Z,29.60
2022-09-25T13:27:31.903Z,29.60
2022-09-25T13:30:05.918Z,29.52
2022-09-25T13:32:40.439Z,29.51
2022-09-25T13:35:19.935Z,29.54
2022-09-25T13:37:51.215Z,29.48
2022-09-25T13:40:41.061Z,29.51
2022-09-25T13:43:27.430Z,29.50
2022-09-25T13:46:16.837Z,29.49
2022-09-25T13:48:47.177Z,29.47
2022-09-25T13:51:23.167Z,29.44
2022-09-25T13:54:06.120Z,29.42
2022-09-25T13:56:36.542Z,29.43
2022-09-25T13:59:13.127Z,29.43
2022-09-25T14:01:50.255Z,29.41
2022-09-25T14:04:46.585Z,29.42
2022-09-25T14:07:22.118Z,29.42
2022-09-25T14:09:57.630Z,29.43
2022-09-25T14:12:44.832Z,29.41
2022-09-25T14:15:34.531Z,29.45
2022-09-25T14:18:08.228Z,29.45
2022-09-25T14:20:44.727Z,29.48
2022-09-25T14:23:18.889Z,29.46
2022-09-25T14:25:52.226Z,29.47
2022-09-25T14:28:32.633Z,29.47
2022-09-25T14:31:21.431Z,29.49
2022-09-25T14:33:58.104Z,29.49
2022-09-25T14:36:48.922Z,29.48
2022-09-25T14:39:22.354Z,29.55
2022-09-25T14:41:58.264Z,29.67
2022-09-25T14:44:47.409Z,29.70
2022-09-25T14:47:18.012Z,29.67
2022-09-25T14:49:49.935Z,29.74
2022-09-25T14:52:26.708Z,29.69
2022-09-25T14:54:58.896Z,29.76
2022-09-25T14:57:30.962Z,29.69
2022-09-25T15:00:04.434Z,29.72
2022-09-25T15:02:36.355Z,29.71
2022-09-25T15:05:20.072Z,29.77
2022-09-25T15:07:49.832Z,29.73
2022-09-25T15:10:42.619Z,29.76
2022-09-25T15:13:23.500Z,29.73
2022-09-25T15:16:18.016Z,29.67
2022-09-25T15:18:51.531Z,29.63
2022-09-25T15:21:41.885Z,29.60
2022-09-25T15:24:17.179Z,29.58
2022-09-25T15:26:52.086Z,29.57
2022-09-25T15:29:25.895Z,29.55
2022-09-25T15:31:55.670Z,29.53
2022-09-25T15:34:25.844Z,29.52
2022-09-25T15:36:56.106Z,29.53
2022-09-25T15:39:27.899Z,29.52
2022-09-25T15:41:57.921Z,29.52
2022-09-25T15:44:29.014Z,29.51
2022-09-25T15:47:01.173Z,29.52
2022-09-25T15:49:36.171Z,29.50
2022-09-25T15:52:08.103Z,29.50
2022-09-25T15:54:47.289Z,29.51
2022-09-25T15:57:26.739Z,29.50
2022-09-25T16:00:15.117Z,29.49
2022-09-25T16:03:18.011Z,29.49
2022-09-25T16:05:49.786Z,29.47
2022-09-25T16:08:30.436Z,29.50
2022-09-25T16:11:08.965Z,29.49
2022-09-25T16:13:41.261Z,29.49
2022-09-25T16:16:43.051Z,29.48
2022-09-25T16:19:24.353Z,29.45
2022-09-25T16:21:54.884Z,29.47
2022-09-25T16:24:26.540Z,29.47
2022-09-25T16:26:58.843Z,29.45
2022-09-25T16:29:30.896Z,29.45
2022-09-25T16:32:06.019Z,29.45
2022-09-25T16:34:37.713Z,29.44
2022-09-25T16:37:09.164Z,29.45
2022-09-25T16:39:40.232Z,29.45
2022-09-25T16:42:29.812Z,29.44
2022-09-25T16:45:18.555Z,29.45
2022-09-25T16:47:50.278Z,29.44
2022-09-25T16:50:21.180Z,29.44
2022-09-25T16:52:51.991Z,29.44
2022-09-25T16:55:26.002Z,29.43
2022-09-25T16:57:56.399Z,29.43
2022-09-25T17:00:27.557Z,29.42
2022-09-25T17:02:57.682Z,29.43
2022-09-25T17:05:29.375Z,29.42
2022-09-25T17:08:00.166Z,29.42
2022-09-25T17:10:31.963Z,29.41
2022-09-25T17:13:03.110Z,29.42
2022-09-25T17:15:36.604Z,29.42
2022-09-25T17:18:10.709Z,29.42
2022-09-25T17:20:40.515Z,29.40
2022-09-25T17:23:11.318Z,29.41
2022-09-25T17:25:41.000Z,29.41
2022-09-25T17:28:11.382Z,29.43
2022-09-25T17:30:42.301Z,29.43
2022-09-25T17:33:17.434Z,29.42
2022-09-25T17:35:50.345Z,29.40
2022-09-25T17:38:20.854Z,29.42
2022-09-25T17:40:54.993Z,29.43
2022-09-25T17:43:25.248Z,29.41
2022-09-25T17:45:57.286Z,29.39
2022-09-25T17:48:30.194Z,29.40
2022-09-25T17:51:04.181Z,29.40
2022-09-25T17:53:35.868Z,29.42
2022-09-25T17:56:05.546Z,29.41
2022-09-25T17:58:35.301Z,29.39
2022-09-25T18:01:08.507Z,29.39
2022-09-25T18:03:38.446Z,29.39
2022-09-25T18:06:08.117Z,29.40
2022-09-25T18:08:38.589Z,29.41
2022-09-25T18:11:08.527Z,29.39
2022-09-25T18:13:41.682Z,29.39
2022-09-25T18:16:18.576Z,29.39
2022-09-25T18:19:07.687Z,29.35
2022-09-25T18:21:56.331Z,29.39
2022-09-25T18:24:26.656Z,29.37
2022-09-25T18:26:58.129Z,29.36
2022-09-25T18:29:28.949Z,29.36
2022-09-25T18:31:58.777Z,29.36
2022-09-25T18:34:29.953Z,29.38
2022-09-25T18:36:59.833Z,29.39
2022-09-25T18:39:29.350Z,29.35
2022-09-25T18:41:59.662Z,29.38
2022-09-25T18:44:30.234Z,29.36
2022-09-25T18:47:00.208Z,29.40
2022-09-25T18:49:30.478Z,29.35
2022-09-25T18:52:00.361Z,29.36
2022-09-25T18:54:31.195Z,29.34
2022-09-25T18:57:00.955Z,29.35
2022-09-25T18:59:30.419Z,29.35
2022-09-25T19:02:00.601Z,29.35
2022-09-25T19:04:31.481Z,29.35
2022-09-25T19:07:01.273Z,29.30
2022-09-25T19:09:30.892Z,29.33
2022-09-25T19:12:01.059Z,29.33
2022-09-25T19:14:31.574Z,29.31
2022-09-25T19:17:01.928Z,29.33
2022-09-25T19:19:33.037Z,29.35
2022-09-25T19:22:03.324Z,29.36
2022-09-25T19:24:38.640Z,29.36
2022-09-25T19:27:09.110Z,29.34
2022-09-25T19:29:38.924Z,29.34
2022-09-25T19:32:09.123Z,29.33
2022-09-25T19:34:39.526Z,29.32
2022-09-25T19:37:10.042Z,29.31
2022-09-25T19:39:58.091Z,29.29
2022-09-25T19:42:30.117Z,29.30
2022-09-25T19:44:59.901Z,29.29
2022-09-25T19:47:30.846Z,29.30
2022-09-25T19:50:01.557Z,29.31
2022-09-25T19:52:31.485Z,29.30
2022-09-25T19:55:01.030Z,29.30
2022-09-25T19:57:31.414Z,29.30
2022-09-25T20:00:02.608Z,29.31
2022-09-25T20:02:38.707Z,29.30
2022-09-25T20:05:08.820Z,29.29
2022-09-25T20:07:38.316Z,29.30
2022-09-25T20:10:08.157Z,29.30
2022-09-25T20:12:37.725Z,29.29
2022-09-25T20:15:08.001Z,29.28
2022-09-25T20:17:37.782Z,29.28
2022-09-25T20:20:08.066Z,29.27
2022-09-25T20:22:38.937Z,29.28
2022-09-25T20:25:09.606Z,29.29
2022-09-25T20:27:40.001Z,29.28
2022-09-25T20:30:10.637Z,29.27
2022-09-25T20:32:40.866Z,29.28
2022-09-25T20:35:10.486Z,29.28
2022-09-25T20:37:40.736Z,29.30
2022-09-25T20:40:10.838Z,29.27
2022-09-25T20:42:40.481Z,29.26
2022-09-25T20:45:11.338Z,29.27
2022-09-25T20:47:46.218Z,29.27
2022-09-25T20:50:17.303Z,29.28
2022-09-25T20:52:47.811Z,29.27
2022-09-25T20:55:18.939Z,29.27
2022-09-25T20:57:49.257Z,29.27
2022-09-25T21:00:19.603Z,29.25
2022-09-25T21:02:50.099Z,29.26
2022-09-25T21:05:20.587Z,29.27
2022-09-25T21:07:51.145Z,29.28
2022-09-25T21:10:21.534Z,29.28
2022-09-25T21:12:51.784Z,29.28
2022-09-25T21:15:22.057Z,29.31
2022-09-25T21:17:51.777Z,29.30
2022-09-25T21:20:22.210Z,29.27
2022-09-25T21:22:55.112Z,29.23
2022-09-25T21:25:25.318Z,29.17
2022-09-25T21:27:55.042Z,29.17
2022-09-25T21:30:25.497Z,29.15
2022-09-25T21:32:56.370Z,29.11
2022-09-25T21:35:27.052Z,29.13
2022-09-25T21:37:57.365Z,29.12
2022-09-25T21:40:27.729Z,29.12
2022-09-25T21:42:58.055Z,29.07
2022-09-25T21:45:27.964Z,29.05
2022-09-25T21:47:58.135Z,29.08
2022-09-25T21:50:28.501Z,29.06
2022-09-25T21:52:58.313Z,29.07
2022-09-25T21:55:28.074Z,29.07
2022-09-25T21:57:58.346Z,29.07
2022-09-25T22:00:28.209Z,29.05
2022-09-25T22:02:58.822Z,29.06
2022-09-25T22:05:29.338Z,29.05
2022-09-25T22:07:59.818Z,29.00
2022-09-25T22:10:29.980Z,28.96
2022-09-25T22:12:59.989Z,28.96
2022-09-25T22:15:29.594Z,28.96
2022-09-25T22:17:59.991Z,29.00
2022-09-25T22:20:30.359Z,28.98
2022-09-25T22:23:00.119Z,29.01
2022-09-25T22:25:30.013Z,29.05
2022-09-25T22:28:00.222Z,29.11
2022-09-25T22:30:30.613Z,29.10
2022-09-25T22:33:00.341Z,29.09
2022-09-25T22:35:29.794Z,29.14
2022-09-25T22:38:00.166Z,29.09
2022-09-25T22:40:30.741Z,29.04
2022-09-25T22:43:04.285Z,29.07
2022-09-25T22:45:34.971Z,29.09
2022-09-25T22:49:16.063Z,29.09
2022-09-25T22:51:46.351Z,29.07
2022-09-25T22:54:17.203Z,28.99
2022-09-25T22:56:46.976Z,28.99
2022-09-25T22:59:20.694Z,28.99
2022-09-25T23:01:52.927Z,28.96
2022-09-25T23:04:24.081Z,28.95
2022-09-25T23:06:54.108Z,28.91
2022-09-25T23:09:24.747Z,28.86
2022-09-25T23:11:56.026Z,28.85
2022-09-25T23:14:27.863Z,28.90
2022-09-25T23:16:58.797Z,28.89
2022-09-25T23:19:29.138Z,28.93
2022-09-25T23:21:59.292Z,28.96
2022-09-25T23:24:29.732Z,28.96
2022-09-25T23:26:59.950Z,28.95
2022-09-25T23:29:30.252Z,28.97
2022-09-25T23:31:59.973Z,28.98
2022-09-25T23:34:30.036Z,28.98
2022-09-25T23:37:00.124Z,28.97
2022-09-25T23:39:30.554Z,28.96
2022-09-25T23:42:00.414Z,28.95
2022-09-25T23:44:30.130Z,28.94
2022-09-25T23:47:00.048Z,28.94
2022-09-25T23:49:30.288Z,28.93
2022-09-25T23:52:00.128Z,28.95
2022-09-25T23:54:30.028Z,28.95
2022-09-25T23:57:01.419Z,28.94
2022-09-25T23:59:31.222Z,28.93
